Time;durP1;ratioP1;P1;durP2;ratioP2;P2;SDS_P1;SDS_P2;PMS_P1;PMS_P2;Temp;Humidity;BMP_temperature;BMP_pressure;BME280_temperature;BME280_humidity;BME280_pressure;Samples;Min_cycle;Max_cycle;Signal;HPM_P1;HPM_P2
2022/03/12 00:01:18;;;;;;;15.15;2.63;;;23.60;12.20;;;;;;5040357;28;20160;-66
2022/03/12 00:03:45;;;;;;;12.23;2.85;;;23.60;12.60;;;;;;5027640;28;20077;-61
2022/03/12 00:06:11;;;;;;;28.08;2.78;;;23.70;12.60;;;;;;5037672;28;20146;-64
2022/03/12 00:08:44;;;;;;;15.95;2.60;;;23.60;12.00;;;;;;5038460;28;20547;-64
2022/03/12 00:11:23;;;;;;;27.13;2.80;;;23.60;11.90;;;;;;5038084;28;20084;-66
2022/03/12 00:13:50;;;;;;;14.23;2.75;;;23.50;11.40;;;;;;5039907;28;20073;-63
2022/03/12 00:16:22;;;;;;;17.98;2.58;;;23.40;12.00;;;;;;5041214;28;20073;-65
2022/03/12 00:18:55;;;;;;;13.55;2.80;;;23.30;11.80;;;;;;5030035;28;20088;-63
2022/03/12 00:21:23;;;;;;;21.35;2.30;;;23.30;11.60;;;;;;5038427;28;20085;-65
2022/03/12 00:23:51;;;;;;;18.98;2.28;;;23.30;11.20;;;;;;5040007;28;20081;-63
2022/03/12 00:26:18;;;;;;;20.90;2.60;;;23.20;11.20;;;;;;5038017;28;20180;-63
2022/03/12 00:28:45;;;;;;;15.77;2.40;;;23.20;11.30;;;;;;5039149;28;20554;-63
2022/03/12 00:31:12;;;;;;;17.77;2.78;;;23.10;11.80;;;;;;5041179;28;20073;-64
2022/03/12 00:33:39;;;;;;;22.58;2.67;;;23.00;11.80;;;;;;5057432;28;20545;-65
2022/03/12 00:36:06;;;;;;;15.85;2.15;;;23.00;11.80;;;;;;5042736;28;20106;-65
2022/03/12 00:38:32;;;;;;;43.65;2.90;;;22.90;11.80;;;;;;5058417;28;20081;-65
2022/03/12 00:41:02;;;;;;;18.20;2.10;;;22.90;11.80;;;;;;5038748;28;20620;-66
2022/03/12 00:43:29;;;;;;;20.92;3.03;;;22.90;12.00;;;;;;5023793;28;20077;-67
2022/03/12 00:45:55;;;;;;;20.98;3.00;;;22.60;12.60;;;;;;5039605;28;20177;-65
2022/03/12 00:48:22;;;;;;;17.45;2.55;;;22.50;12.40;;;;;;5055460;28;20073;-65
2022/03/12 00:50:48;;;;;;;18.00;2.60;;;22.40;12.70;;;;;;5038212;28;20073;-66
2022/03/12 00:53:14;;;;;;;12.18;2.20;;;22.20;13.20;;;;;;5019359;28;20073;-66
2022/03/12 00:55:41;;;;;;;14.50;2.42;;;22.10;12.70;;;;;;5038892;28;20554;-67
2022/03/12 00:58:08;;;;;;;23.67;2.53;;;22.10;12.70;;;;;;5037729;28;20085;-65
2022/03/12 01:00:35;;;;;;;11.07;2.03;;;21.90;12.60;;;;;;5038847;28;20082;-67
2022/03/12 01:03:02;;;;;;;16.95;2.10;;;21.90;12.90;;;;;;5042199;28;20088;-66
2022/03/12 01:05:51;;;;;;;22.38;5.43;;;21.80;13.00;;;;;;5039547;28;20453;-64
2022/03/12 01:08:19;;;;;;;56.22;39.85;;;21.80;13.90;;;;;;5028118;28;20081;-65
2022/03/12 01:10:46;;;;;;;18.45;3.00;;;21.70;13.50;;;;;;5047326;28;20081;-63
2022/03/12 01:13:14;;;;;;;15.45;2.22;;;21.70;13.30;;;;;;5039579;28;20129;-63
2022/03/12 01:15:41;;;;;;;15.35;2.75;;;21.60;13.10;;;;;;5058534;28;20065;-65
2022/03/12 01:18:13;;;;;;;15.93;2.53;;;21.40;13.00;;;;;;5039814;28;20095;-64
2022/03/12 01:20:40;;;;;;;1025.05;76.53;;;21.40;13.00;;;;;;5026155;28;20522;-62
2022/03/12 01:23:08;;;;;;;44.17;4.82;;;21.20;13.30;;;;;;5039415;28;20119;-71
2022/03/12 01:25:35;;;;;;;17.05;3.10;;;21.10;14.10;;;;;;5040537;28;20104;-63
2022/03/12 01:28:01;;;;;;;58.13;4.70;;;21.10;13.30;;;;;;5043337;28;21324;-65
2022/03/12 01:30:30;;;;;;;26.90;3.42;;;21.00;13.80;;;;;;5041661;28;20166;-65
2022/03/12 01:32:57;;;;;;;210.82;12.50;;;20.90;13.50;;;;;;5047510;28;20078;-64
2022/03/12 01:35:24;;;;;;;1159.35;72.55;;;20.90;14.10;;;;;;5031944;28;20085;-65
2022/03/12 01:37:51;;;;;;;39.55;2.78;;;20.70;13.60;;;;;;5043314;28;20131;-63
2022/03/12 01:40:17;;;;;;;11.63;2.30;;;20.60;13.50;;;;;;5060806;28;20069;-63
2022/03/12 01:42:44;;;;;;;25.73;2.78;;;20.50;13.50;;;;;;5042140;28;20191;-64
2022/03/12 01:45:11;;;;;;;;;;;20.50;14.20;;;;;;5041017;28;20069;-69
2022/03/12 01:47:38;;;;;;;18.58;2.42;;;20.40;14.60;;;;;;5040876;28;20051;-65
2022/03/12 01:50:05;;;;;;;17.90;3.20;;;20.30;14.10;;;;;;5024760;28;20621;-64
2022/03/12 01:52:31;;;;;;;15.40;2.72;;;20.20;13.90;;;;;;5045392;28;20480;-65
2022/03/12 01:54:58;;;;;;;28.52;3.58;;;20.10;14.00;;;;;;5041082;28;20074;-65
2022/03/12 01:57:25;;;;;;;19.77;3.80;;;20.10;13.90;;;;;;5042972;28;20133;-64
2022/03/12 01:59:51;;;;;;;21.77;4.55;;;20.00;13.90;;;;;;5047039;28;20081;-66
2022/03/12 02:02:21;;;;;;;17.90;3.58;;;19.90;14.00;;;;;;5061006;28;20078;-66
2022/03/12 02:04:52;;;;;;;22.60;3.90;;;19.80;14.20;;;;;;5044811;28;20073;-63
2022/03/12 02:07:21;;;;;;;24.73;4.70;;;19.80;14.20;;;;;;5045200;28;20515;-64
2022/03/12 02:09:48;;;;;;;29.90;4.55;;;19.70;14.30;;;;;;5058603;28;20093;-63
2022/03/12 02:12:15;;;;;;;37.00;5.80;;;19.70;14.30;;;;;;5042343;28;20105;-62
2022/03/12 02:14:41;;;;;;;21.55;5.70;;;19.60;14.30;;;;;;5046038;28;20123;-63
2022/03/12 02:17:10;;;;;;;38.78;7.47;;;19.50;14.40;;;;;;5061564;28;20081;-64
2022/03/12 02:19:39;;;;;;;35.47;7.47;;;19.50;14.70;;;;;;5039075;28;20073;-75
2022/03/12 02:22:08;;;;;;;26.08;6.85;;;19.40;14.80;;;;;;5034783;28;20108;-64
2022/03/12 02:24:37;;;;;;;32.33;7.05;;;19.30;14.90;;;;;;5061492;28;20164;-64
2022/03/12 02:27:06;;;;;;;30.85;7.13;;;19.20;15.00;;;;;;5044934;28;20601;-64
2022/03/12 02:29:33;;;;;;;28.98;7.47;;;19.10;15.70;;;;;;5041682;28;20074;-68
2022/03/12 02:32:03;;;;;;;33.40;7.22;;;19.10;15.50;;;;;;5044173;28;20073;-71
2022/03/12 02:34:38;;;;;;;39.17;7.80;;;19.00;16.10;;;;;;5060658;28;20528;-63
2022/03/12 02:37:05;;;;;;;35.03;7.80;;;18.90;16.40;;;;;;5022807;28;20092;-63
2022/03/12 02:39:37;;;;;;;33.67;6.80;;;18.80;18.30;;;;;;5040883;28;20078;-61
2022/03/12 02:42:07;;;;;;;29.48;7.82;;;18.70;18.20;;;;;;5042996;28;20614;-65
2022/03/12 02:44:34;;;;;;;41.22;7.20;;;18.60;17.70;;;;;;5041020;28;20191;-63
2022/03/12 02:47:21;;;;;;;42.53;6.53;;;18.50;17.70;;;;;;5041354;28;20081;-67
2022/03/12 02:49:49;;;;;;;;;;;18.40;16.70;;;;;;5043359;28;20127;-63
2022/03/12 02:52:17;;;;;;;46.35;7.43;;;18.40;16.60;;;;;;5062136;28;19965;-63
2022/03/12 02:54:44;;;;;;;41.17;8.75;;;18.30;16.70;;;;;;5027379;28;20069;-65
2022/03/12 02:57:12;;;;;;;46.72;10.30;;;18.30;17.80;;;;;;5021031;28;20096;-64
2022/03/12 02:59:43;;;;;;;59.92;11.02;;;18.20;19.10;;;;;;5024990;28;20081;-63
2022/03/12 03:02:11;;;;;;;52.55;9.30;;;18.10;19.10;;;;;;5041304;28;20101;-64
2022/03/12 03:04:41;;;;;;;49.33;8.27;;;18.00;19.10;;;;;;5062750;28;20544;-64
2022/03/12 03:07:09;;;;;;;56.10;8.27;;;17.90;18.70;;;;;;5032302;28;20176;-64
2022/03/12 03:09:36;;;;;;;51.20;7.18;;;17.80;19.20;;;;;;5036619;28;20097;-64
2022/03/12 03:12:07;;;;;;;51.55;8.25;;;17.70;18.90;;;;;;5041559;28;20127;-65
2022/03/12 03:14:33;;;;;;;60.42;7.97;;;17.60;19.80;;;;;;5044597;28;20140;-63
2022/03/12 03:17:00;;;;;;;48.00;7.00;;;17.50;20.20;;;;;;5062108;28;20175;-64
2022/03/12 03:19:28;;;;;;;51.78;7.07;;;17.50;19.90;;;;;;5039152;28;20109;-68
2022/03/12 03:21:57;;;;;;;46.28;8.82;;;17.40;20.20;;;;;;5041501;28;20077;-68
2022/03/12 03:24:24;;;;;;;72.47;12.88;;;17.40;19.60;;;;;;5058507;28;20542;-64
2022/03/12 03:26:58;;;;;;;66.30;12.15;;;17.30;18.40;;;;;;5040069;28;20115;-61
2022/03/12 03:29:26;;;;;;;55.55;11.18;;;17.30;17.90;;;;;;5041137;28;20115;-67
2022/03/12 03:31:53;;;;;;;62.25;12.07;;;17.30;17.90;;;;;;5061370;28;20084;-64
2022/03/12 03:34:21;;;;;;;71.10;12.90;;;17.30;19.40;;;;;;5045796;28;20487;-64
2022/03/12 03:36:49;;;;;;;81.47;16.83;;;17.20;20.40;;;;;;5041153;28;20164;-63
2022/03/12 03:39:15;;;;;;;83.65;14.95;;;17.10;20.40;;;;;;5042737;28;20117;-63
2022/03/12 03:41:42;;;;;;;65.47;13.07;;;17.10;20.50;;;;;;5057073;28;20594;-64
2022/03/12 03:44:10;;;;;;;67.60;13.90;;;17.00;20.60;;;;;;5043729;28;20076;-63
2022/03/12 03:46:36;;;;;;;78.35;13.30;;;16.90;21.00;;;;;;5038800;28;20085;-64
2022/03/12 03:49:03;;;;;;;;;;;16.80;21.00;;;;;;5044627;28;20085;-60
2022/03/12 03:51:30;;;;;;;63.03;13.68;;;16.70;21.00;;;;;;5060831;28;19953;-64
2022/03/12 03:53:57;;;;;;;69.88;13.27;;;16.70;20.90;;;;;;5058421;28;20127;-63
2022/03/12 03:56:23;;;;;;;80.30;12.52;;;16.60;19.70;;;;;;5042351;28;20168;-63
2022/03/12 03:58:50;;;;;;;70.78;13.30;;;16.70;19.40;;;;;;5062444;28;20083;-64
2022/03/12 04:01:22;;;;;;;72.72;14.48;;;16.60;19.40;;;;;;5042892;28;20090;-64
2022/03/12 04:03:49;;;;;;;66.65;14.10;;;16.60;19.70;;;;;;5057608;28;20100;-65
2022/03/12 04:06:19;;;;;;;79.20;14.27;;;16.60;21.10;;;;;;5041593;28;20089;-63
2022/03/12 04:08:46;;;;;;;69.00;13.63;;;16.50;21.00;;;;;;5041639;28;20096;-64
2022/03/12 04:11:21;;;;;;;68.90;14.05;;;16.50;21.10;;;;;;5041413;28;20077;-64
2022/03/12 04:13:49;;;;;;;79.13;15.20;;;16.40;20.90;;;;;;5035540;28;20565;-63
2022/03/12 04:16:17;;;;;;;101.03;16.27;;;16.30;21.10;;;;;;5039704;28;20073;-64
2022/03/12 04:18:46;;;;;;;59.40;14.30;;;16.30;22.20;;;;;;5039657;28;20135;-64
2022/03/12 04:21:15;;;;;;;71.20;14.60;;;16.20;22.40;;;;;;5042555;28;20077;-66
2022/03/12 04:23:42;;;;;;;72.07;14.85;;;16.20;21.90;;;;;;5042260;28;20083;-64
2022/03/12 04:26:11;;;;;;;78.57;14.07;;;16.10;22.00;;;;;;5041554;28;20113;-63
2022/03/12 04:28:38;;;;;;;88.32;16.30;;;16.00;21.70;;;;;;5043578;28;20116;-65
2022/03/12 04:31:05;;;;;;;;;;;16.00;21.90;;;;;;5023462;28;20146;-65
2022/03/12 04:33:32;;;;;;;117.25;19.55;;;15.90;22.00;;;;;;5040321;28;20059;-66
2022/03/12 04:36:00;;;;;;;93.40;20.67;;;15.90;22.60;;;;;;5025581;28;20176;-64
2022/03/12 04:38:27;;;;;;;81.45;17.33;;;15.80;22.80;;;;;;5039751;28;20435;-64
2022/03/12 04:40:55;;;;;;;93.93;17.45;;;15.70;23.20;;;;;;5039873;28;20531;-63
2022/03/12 04:43:25;;;;;;;64.95;15.02;;;15.70;22.80;;;;;;5041222;28;20089;-64
2022/03/12 04:45:52;;;;;;;70.95;15.00;;;15.70;23.00;;;;;;5038211;28;20100;-63
2022/03/12 04:48:21;;;;;;;83.82;16.23;;;15.60;22.70;;;;;;5039485;28;20077;-64
2022/03/12 04:50:49;;;;;;;98.60;15.43;;;15.50;22.50;;;;;;5041426;28;20087;-66
2022/03/12 04:53:15;;;;;;;81.15;16.08;;;15.50;22.50;;;;;;5012970;28;20069;-63
2022/03/12 04:55:44;;;;;;;71.65;14.07;;;15.50;22.30;;;;;;5039249;28;20080;-62
2022/03/12 04:58:10;;;;;;;80.43;15.20;;;15.50;22.30;;;;;;5042460;28;20080;-65
2022/03/12 05:00:40;;;;;;;84.13;15.23;;;15.40;22.70;;;;;;5041572;28;20073;-64
2022/03/12 05:03:08;;;;;;;78.75;15.50;;;15.40;23.30;;;;;;5064479;28;20092;-63
2022/03/12 05:05:39;;;;;;;88.97;16.83;;;15.40;23.60;;;;;;5061204;28;20109;-64
2022/03/12 05:08:10;;;;;;;93.03;17.58;;;15.40;23.70;;;;;;5061841;28;20096;-64
2022/03/12 05:10:37;;;;;;;118.43;21.73;;;15.30;24.20;;;;;;5044538;28;20558;-65
2022/03/12 05:13:04;;;;;;;84.57;20.38;;;15.20;24.40;;;;;;5034318;28;20117;-64
2022/03/12 05:15:39;;;;;;;110.63;21.67;;;15.20;24.20;;;;;;5047081;28;20074;-63
2022/03/12 05:18:07;;;;;;;112.35;20.17;;;15.10;24.00;;;;;;5063361;28;20471;-63
2022/03/12 05:20:36;;;;;;;69.75;18.20;;;15.20;24.40;;;;;;5061283;28;20167;-66
2022/03/12 05:23:07;;;;;;;94.18;19.80;;;15.10;24.50;;;;;;5059551;28;20073;-64
2022/03/12 05:25:42;;;;;;;75.50;18.50;;;15.10;25.00;;;;;;5042946;28;20191;-65
2022/03/12 05:28:10;;;;;;;81.97;19.13;;;15.00;24.40;;;;;;5040703;28;20080;-65
2022/03/12 05:30:37;;;;;;;89.72;18.75;;;14.90;24.10;;;;;;5044479;28;20073;-64
2022/03/12 05:33:04;;;;;;;;;;;14.90;24.00;;;;;;5040755;28;20119;-64
2022/03/12 05:35:31;;;;;;;95.65;24.20;;;14.80;24.20;;;;;;5032626;28;19972;-65
2022/03/12 05:37:57;;;;;;;95.22;24.52;;;14.80;24.10;;;;;;5042434;28;20608;-63
2022/03/12 05:40:28;;;;;;;;;;;14.80;23.90;;;;;;5044748;28;20191;-64
2022/03/12 05:42:55;;;;;;;106.85;24.70;;;14.80;23.80;;;;;;5057019;28;20621;-64
2022/03/12 05:45:23;;;;;;;81.15;22.17;;;14.70;23.70;;;;;;5061326;28;20093;-65
2022/03/12 05:47:51;;;;;;;97.80;22.77;;;14.70;23.80;;;;;;5044066;28;20069;-64
2022/03/12 05:50:19;;;;;;;92.07;23.58;;;14.60;23.50;;;;;;5041340;28;20172;-65
2022/03/12 05:52:50;;;;;;;102.13;23.23;;;14.70;24.50;;;;;;5060923;28;20070;-64
2022/03/12 05:55:22;;;;;;;79.03;21.15;;;14.70;24.80;;;;;;5041263;28;20515;-64
2022/03/12 05:57:49;;;;;;;100.72;22.88;;;14.60;24.60;;;;;;5025293;28;20077;-65
2022/03/12 06:00:17;;;;;;;90.53;22.45;;;14.50;24.10;;;;;;5041108;28;20077;-64
2022/03/12 06:02:52;;;;;;;79.18;21.27;;;14.50;24.00;;;;;;5060868;28;20541;-66
2022/03/12 06:05:20;;;;;;;99.50;21.88;;;14.40;24.00;;;;;;5039129;28;20114;-62
2022/03/12 06:07:49;;;;;;;77.00;20.80;;;14.30;24.40;;;;;;5044927;28;20076;-64
2022/03/12 06:10:18;;;;;;;91.30;21.95;;;14.30;24.70;;;;;;5040272;28;20450;-64
2022/03/12 06:12:45;;;;;;;71.40;19.92;;;14.20;24.80;;;;;;5040255;28;20605;-66
2022/03/12 06:15:14;;;;;;;101.90;21.40;;;14.20;24.90;;;;;;5039651;28;20081;-64
2022/03/12 06:17:41;;;;;;;84.57;21.48;;;14.20;25.30;;;;;;5044729;28;20426;-63
2022/03/12 06:20:08;;;;;;;;;;;14.20;25.10;;;;;;5044643;28;20073;-63
2022/03/12 06:22:35;;;;;;;103.38;20.50;;;14.10;25.60;;;;;;5042433;28;20330;-64
2022/03/12 06:25:01;;;;;;;87.25;20.38;;;14.10;25.50;;;;;;5057629;28;20097;-64
2022/03/12 06:27:28;;;;;;;82.80;20.20;;;14.10;25.70;;;;;;5046049;28;20140;-65
2022/03/12 06:29:56;;;;;;;;;;;14.10;25.50;;;;;;5022099;28;20169;-66
2022/03/12 06:32:23;;;;;;;102.13;21.15;;;14.00;25.20;;;;;;5056703;28;20293;-66
2022/03/12 06:34:49;;;;;;;86.45;21.00;;;14.00;25.90;;;;;;5043303;28;20073;-64
2022/03/12 06:37:15;;;;;;;;;;;14.00;26.40;;;;;;5063652;28;20073;-65
2022/03/12 06:39:42;;;;;;;105.85;21.73;;;14.00;26.90;;;;;;5042277;28;20567;-65
2022/03/12 06:42:08;;;;;;;;;;;14.00;26.90;;;;;;5034903;28;20558;-64
2022/03/12 06:44:37;;;;;;;90.68;21.45;;;13.90;26.40;;;;;;5039781;28;19957;-64
2022/03/12 06:47:09;;;;;;;82.90;20.45;;;13.80;25.70;;;;;;5022256;28;20562;-69
2022/03/12 06:49:39;;;;;;;94.70;19.50;;;13.80;24.80;;;;;;5045487;28;20084;-66
2022/03/12 06:52:06;;;;;;;85.07;19.65;;;13.80;25.60;;;;;;5043912;28;20443;-70
2022/03/12 06:54:34;;;;;;;91.03;19.58;;;13.80;25.80;;;;;;5044593;28;20076;-67
2022/03/12 06:57:02;;;;;;;81.18;18.23;;;13.80;26.10;;;;;;5059787;28;20082;-67
2022/03/12 06:59:28;;;;;;;96.95;18.33;;;13.70;25.50;;;;;;5041348;28;20119;-64
2022/03/12 07:01:54;;;;;;;;;;;13.60;25.50;;;;;;5045375;28;20233;-70
2022/03/12 07:04:21;;;;;;;82.05;19.20;;;13.60;26.30;;;;;;5056958;28;20440;-65
2022/03/12 07:06:49;;;;;;;83.65;19.55;;;13.70;27.30;;;;;;5042284;28;20089;-65
2022/03/12 07:09:17;;;;;;;103.60;21.60;;;13.70;27.60;;;;;;5025706;28;20118;-66
2022/03/12 07:11:44;;;;;;;84.18;21.58;;;13.60;27.60;;;;;;5037387;28;20159;-67
2022/03/12 07:14:11;;;;;;;78.03;20.70;;;13.50;26.70;;;;;;5044711;28;20066;-64
2022/03/12 07:16:37;;;;;;;80.15;20.75;;;13.40;26.30;;;;;;5038965;28;20128;-65
2022/03/12 07:19:04;;;;;;;94.35;21.77;;;13.40;26.80;;;;;;5036920;28;20078;-65
2022/03/12 07:21:31;;;;;;;84.22;20.88;;;13.40;27.10;;;;;;5029181;28;20077;-67
2022/03/12 07:23:57;;;;;;;73.03;20.30;;;13.40;27.10;;;;;;5038170;28;20070;-65
2022/03/12 07:26:24;;;;;;;84.45;20.85;;;13.30;26.90;;;;;;5035934;28;20098;-65
2022/03/12 07:28:50;;;;;;;;;;;13.30;27.20;;;;;;5037336;28;20090;-65
2022/03/12 07:31:16;;;;;;;89.63;19.27;;;13.20;27.00;;;;;;5036159;28;20081;-63
2022/03/12 07:33:44;;;;;;;75.22;20.38;;;13.20;26.90;;;;;;5040409;28;20070;-64
2022/03/12 07:36:11;;;;;;;79.13;19.23;;;13.20;27.20;;;;;;5037722;28;20078;-64
2022/03/12 07:38:37;;;;;;;86.00;20.35;;;13.20;27.20;;;;;;5055339;28;20105;-64
2022/03/12 07:41:04;;;;;;;;;;;13.20;27.00;;;;;;5036140;28;20104;-63
2022/03/12 07:43:30;;;;;;;104.47;21.98;;;13.10;27.50;;;;;;5041159;28;19963;-65
2022/03/12 07:45:57;;;;;;;89.78;21.05;;;13.10;28.20;;;;;;5038708;28;20529;-64
2022/03/12 07:48:24;;;;;;;83.80;19.70;;;13.10;28.50;;;;;;5010537;28;20105;-66
2022/03/12 07:50:50;;;;;;;91.28;21.13;;;13.10;28.00;;;;;;5041996;28;20537;-64
2022/03/12 07:53:17;;;;;;;;;;;13.00;27.30;;;;;;5025072;28;20165;-64
2022/03/12 07:55:43;;;;;;;108.40;20.98;;;13.10;28.50;;;;;;5035188;28;19987;-66
2022/03/12 07:58:14;;;;;;;;;;;13.00;28.30;;;;;;5037973;28;20078;-66
2022/03/12 08:00:40;;;;;;;99.05;21.52;;;13.00;28.30;;;;;;5039558;28;20000;-64
2022/03/12 08:03:07;;;;;;;91.63;22.05;;;13.10;28.50;;;;;;5036564;28;20095;-66
2022/03/12 08:05:34;;;;;;;90.70;20.20;;;13.00;28.50;;;;;;5040609;28;20104;-67
2022/03/12 08:08:02;;;;;;;;;;;13.00;28.60;;;;;;5039323;28;20109;-64
2022/03/12 08:10:28;;;;;;;74.95;20.20;;;13.00;28.40;;;;;;5033027;28;19973;-66
2022/03/12 08:12:58;;;;;;;76.80;20.35;;;12.90;27.90;;;;;;5054171;28;20137;-64
2022/03/12 08:15:25;;;;;;;86.57;20.45;;;12.90;28.00;;;;;;5042387;28;20083;-65
2022/03/12 08:17:51;;;;;;;88.05;22.60;;;12.80;27.80;;;;;;5039196;28;20073;-63
2022/03/12 08:20:19;;;;;;;100.40;22.83;;;12.70;27.60;;;;;;5039369;28;20416;-65
2022/03/12 08:22:45;;;;;;;96.68;23.05;;;12.70;28.10;;;;;;5040328;28;20088;-63
2022/03/12 08:25:13;;;;;;;;;;;12.70;28.60;;;;;;5040060;28;20081;-63
2022/03/12 08:27:40;;;;;;;98.25;24.30;;;12.70;28.40;;;;;;5039902;28;19964;-64
2022/03/12 08:30:12;;;;;;;81.40;22.75;;;12.60;28.80;;;;;;5058142;28;20080;-64
2022/03/12 08:32:40;;;;;;;103.45;25.27;;;12.60;28.10;;;;;;5041797;28;20507;-64
2022/03/12 08:35:08;;;;;;;84.35;24.98;;;12.60;28.30;;;;;;5040945;28;20085;-61
2022/03/12 08:37:34;;;;;;;110.68;22.90;;;12.60;28.10;;;;;;5055915;28;20167;-60
2022/03/12 08:40:04;;;;;;;;;;;12.50;28.50;;;;;;5057738;28;20088;-61
2022/03/12 08:42:30;;;;;;;94.10;24.75;;;12.50;28.30;;;;;;5016846;28;19961;-60
2022/03/12 08:44:57;;;;;;;89.80;23.50;;;12.50;28.60;;;;;;5030864;28;20070;-61
2022/03/12 08:47:23;;;;;;;;;;;12.40;28.60;;;;;;5039202;28;20538;-61
2022/03/12 08:49:50;;;;;;;100.15;27.23;;;12.40;28.50;;;;;;5038935;28;19964;-61
2022/03/12 08:52:16;;;;;;;85.80;22.88;;;12.40;28.50;;;;;;5054343;28;20085;-60
2022/03/12 08:54:42;;;;;;;;;;;12.30;28.40;;;;;;5043188;28;20107;-61
2022/03/12 08:57:09;;;;;;;79.55;22.80;;;12.30;28.40;;;;;;5036366;28;20004;-60
2022/03/12 08:59:35;;;;;;;;;;;12.20;28.40;;;;;;5040706;28;20625;-60
2022/03/12 09:02:01;;;;;;;91.95;23.17;;;12.10;28.70;;;;;;5023053;28;19989;-61
2022/03/12 09:04:27;;;;;;;;;;;12.10;28.70;;;;;;5044631;28;20120;-62
2022/03/12 09:06:53;;;;;;;75.18;21.95;;;12.00;28.70;;;;;;5030360;28;20005;-61
2022/03/12 09:09:19;;;;;;;;;;;12.00;28.60;;;;;;5039775;28;20564;-60
2022/03/12 09:11:46;;;;;;;75.50;20.65;;;12.00;28.90;;;;;;5022210;28;19989;-61
2022/03/12 09:14:12;;;;;;;83.20;20.58;;;12.10;29.60;;;;;;5040461;28;20082;-62
2022/03/12 09:16:40;;;;;;;;;;;12.10;29.70;;;;;;5017698;28;20090;-61
2022/03/12 09:19:08;;;;;;;74.10;20.45;;;12.10;29.50;;;;;;5023428;28;19957;-60
2022/03/12 09:21:35;;;;;;;77.82;19.08;;;12.10;29.30;;;;;;5036934;28;20528;-62
2022/03/12 09:24:03;;;;;;;62.30;17.77;;;12.10;29.10;;;;;;5016486;28;20082;-60
2022/03/12 09:26:30;;;;;;;63.85;17.08;;;12.00;28.80;;;;;;5051153;28;20098;-60
2022/03/12 09:28:57;;;;;;;83.13;18.23;;;12.00;28.60;;;;;;5035840;28;20528;-59
2022/03/12 09:31:24;;;;;;;65.53;17.60;;;11.90;29.00;;;;;;5034950;28;20078;-61
2022/03/12 09:33:50;;;;;;;59.25;16.33;;;11.90;29.20;;;;;;5039400;28;20129;-61
2022/03/12 09:36:16;;;;;;;;;;;11.80;29.20;;;;;;5039494;28;20097;-60
2022/03/12 09:38:43;;;;;;;53.78;15.20;;;11.90;29.20;;;;;;5036994;28;20326;-61
2022/03/12 09:41:10;;;;;;;53.00;14.80;;;11.90;29.60;;;;;;5038445;28;20524;-60
2022/03/12 09:43:37;;;;;;;55.03;14.25;;;11.90;29.50;;;;;;5037481;28;20105;-61
2022/03/12 09:46:03;;;;;;;;;;;11.90;29.60;;;;;;5038815;28;20705;-60
2022/03/12 09:48:29;;;;;;;33.25;8.13;;;11.80;28.20;;;;;;5023957;28;19958;-60
2022/03/12 09:50:56;;;;;;;;;;;11.70;27.00;;;;;;5042100;28;20073;-60
2022/03/12 09:53:22;;;;;;;29.02;5.63;;;11.80;26.40;;;;;;5038725;28;19958;-59
2022/03/12 09:55:49;;;;;;;28.50;4.88;;;11.80;26.30;;;;;;5026605;28;20136;-60
2022/03/12 09:58:15;;;;;;;;;;;11.80;25.90;;;;;;5042945;28;20219;-60
2022/03/12 10:00:43;;;;;;;18.58;4.93;;;11.90;26.30;;;;;;5039667;28;20008;-59
2022/03/12 10:03:09;;;;;;;20.42;4.93;;;11.90;26.10;;;;;;5030827;28;20097;-60
2022/03/12 10:05:35;;;;;;;11.85;4.55;;;12.00;25.50;;;;;;5043916;28;20099;-61
2022/03/12 10:08:02;;;;;;;;;;;12.00;25.70;;;;;;5041370;28;20077;-60
2022/03/12 10:10:28;;;;;;;16.35;5.43;;;12.00;25.90;;;;;;5038255;28;19973;-60
2022/03/12 10:12:55;;;;;;;21.23;4.70;;;12.00;25.60;;;;;;5039547;28;20116;-62
2022/03/12 10:15:21;;;;;;;;;;;12.00;25.50;;;;;;5048172;28;20160;-59
2022/03/12 10:17:49;;;;;;;14.18;4.78;;;12.10;25.50;;;;;;5042359;28;19965;-61
2022/03/12 10:20:16;;;;;;;16.08;4.93;;;12.00;25.20;;;;;;5044217;28;20490;-60
2022/03/12 10:22:45;;;;;;;13.73;4.13;;;12.10;24.90;;;;;;5038660;28;20132;-59
2022/03/12 10:25:12;;;;;;;15.93;4.78;;;12.10;24.70;;;;;;5037973;28;20176;-61
2022/03/12 10:27:39;;;;;;;14.38;4.43;;;12.20;25.70;;;;;;5036589;28;20086;-61
2022/03/12 10:30:07;;;;;;;11.07;3.95;;;12.20;25.90;;;;;;5037857;28;20073;-61
2022/03/12 10:32:43;;;;;;;14.77;4.25;;;12.20;25.60;;;;;;5038164;28;20151;-60
2022/03/12 10:35:12;;;;;;;10.07;3.83;;;12.10;25.50;;;;;;5023233;28;20126;-61
2022/03/12 10:37:40;;;;;;;13.95;3.70;;;12.10;25.40;;;;;;5036739;28;20359;-61
2022/03/12 10:40:16;;;;;;;13.80;3.90;;;12.10;25.20;;;;;;5043402;28;20069;-59
2022/03/12 10:43:12;;;;;;;9.07;3.50;;;12.10;25.80;;;;;;5039893;28;20213;-62
2022/03/12 10:45:46;;;;;;;10.70;3.42;;;12.10;25.70;;;;;;5039591;28;20086;-62
2022/03/12 10:48:17;;;;;;;10.20;3.30;;;12.20;25.60;;;;;;5035702;28;20081;-61
2022/03/12 10:50:47;;;;;;;7.10;3.20;;;12.20;25.70;;;;;;5039730;28;20432;-62
2022/03/12 10:53:15;;;;;;;8.07;3.05;;;12.10;26.30;;;;;;5039522;28;20407;-59
2022/03/12 10:55:47;;;;;;;10.95;3.17;;;12.10;26.30;;;;;;5037165;28;20524;-60
2022/03/12 10:58:22;;;;;;;6.18;2.70;;;12.10;26.40;;;;;;5038445;28;20120;-60
2022/03/12 11:00:55;;;;;;;8.00;2.97;;;12.10;26.20;;;;;;5038180;28;20535;-61
2022/03/12 11:03:36;;;;;;;16.15;3.47;;;12.10;26.20;;;;;;5038472;28;20109;-62
2022/03/12 11:06:06;;;;;;;14.88;3.72;;;12.10;26.60;;;;;;5036870;28;20097;-62
2022/03/12 11:08:34;;;;;;;11.27;4.10;;;12.10;27.20;;;;;;5034486;28;20961;-58
2022/03/12 11:11:10;;;;;;;15.73;3.70;;;12.10;27.20;;;;;;5036615;28;20528;-60
2022/03/12 11:13:49;;;;;;;14.45;4.47;;;12.10;27.50;;;;;;5018005;28;20088;-60
2022/03/12 11:16:29;;;;;;;15.93;4.93;;;12.00;27.50;;;;;;5040158;28;20164;-59
2022/03/12 11:19:00;;;;;;;15.75;4.68;;;11.90;27.90;;;;;;5038144;28;20085;-61
2022/03/12 11:21:37;;;;;;;11.40;4.20;;;11.90;28.20;;;;;;5037319;28;20172;-60
2022/03/12 11:24:20;;;;;;;15.65;4.55;;;11.80;28.10;;;;;;5041235;28;20078;-62
2022/03/12 11:26:53;;;;;;;17.35;4.68;;;11.70;27.80;;;;;;5036955;28;20093;-60
2022/03/12 11:29:22;;;;;;;15.40;4.82;;;11.70;27.80;;;;;;5039626;28;20127;-61
2022/03/12 11:32:02;;;;;;;17.73;4.82;;;11.70;27.80;;;;;;5000631;28;20082;-60
2022/03/12 11:34:41;;;;;;;28.55;5.30;;;11.70;27.80;;;;;;5021724;28;20128;-60
2022/03/12 11:37:20;;;;;;;25.05;4.35;;;11.70;28.60;;;;;;5039198;28;20077;-62
2022/03/12 11:39:49;;;;;;;10.18;3.40;;;11.60;28.20;;;;;;5016145;28;20192;-60
2022/03/12 11:42:21;;;;;;;10.95;3.50;;;11.60;27.10;;;;;;5020680;28;20074;-61
2022/03/12 11:44:50;;;;;;;17.90;3.67;;;11.50;26.50;;;;;;5026422;28;20161;-61
2022/03/12 11:47:19;;;;;;;16.48;3.72;;;11.40;26.40;;;;;;5039607;28;20097;-62
2022/03/12 11:49:46;;;;;;;14.18;4.10;;;11.40;26.50;;;;;;5035865;28;20670;-61
2022/03/12 11:52:14;;;;;;;14.93;2.95;;;11.30;26.90;;;;;;5037231;28;20081;-60
2022/03/12 11:54:43;;;;;;;14.43;3.15;;;11.40;27.10;;;;;;5022460;28;20084;-61
2022/03/12 11:57:30;;;;;;;13.93;2.85;;;11.30;26.50;;;;;;5029489;28;20169;-59
2022/03/12 11:59:58;;;;;;;19.38;3.17;;;11.30;26.00;;;;;;5036431;28;20094;-60
2022/03/12 12:02:30;;;;;;;7.32;2.00;;;11.20;26.10;;;;;;5036566;28;20235;-60
2022/03/12 12:04:58;;;;;;;9.70;2.20;;;11.20;26.30;;;;;;5017872;28;20077;-59
2022/03/12 12:07:29;;;;;;;18.33;2.75;;;11.20;25.70;;;;;;5010475;28;20493;-61
2022/03/12 12:09:55;;;;;;;13.10;2.50;;;11.20;25.70;;;;;;5036303;28;20180;-60
2022/03/12 12:12:22;;;;;;;15.80;2.55;;;11.20;26.00;;;;;;5036387;28;20109;-61
2022/03/12 12:14:49;;;;;;;11.27;2.85;;;11.20;26.30;;;;;;5041282;28;20078;-60
2022/03/12 12:17:15;;;;;;;13.15;2.70;;;11.10;26.50;;;;;;5028809;28;21125;-59
2022/03/12 12:19:42;;;;;;;8.77;2.40;;;11.10;26.70;;;;;;5037468;28;20120;-60
2022/03/12 12:22:08;;;;;;;10.00;2.60;;;11.10;26.80;;;;;;5027876;28;20136;-60
2022/03/12 12:24:36;;;;;;;;;;;11.10;27.10;;;;;;5038042;28;20451;-60
2022/03/12 12:27:14;;;;;;;13.73;2.63;;;11.10;27.10;;;;;;5038478;28;19977;-62
2022/03/12 12:29:41;;;;;;;13.68;2.22;;;10.90;26.80;;;;;;5037737;28;20612;-60
2022/03/12 12:32:12;;;;;;;14.50;2.70;;;10.90;26.90;;;;;;5036965;28;20124;-61
2022/03/12 12:35:04;;;;;;;16.70;2.67;;;10.90;27.50;;;;;;5037321;28;20089;-60
2022/03/12 12:37:45;;;;;;;10.80;2.72;;;11.00;27.50;;;;;;5036348;28;20169;-60
2022/03/12 12:40:23;;;;;;;16.88;2.92;;;10.80;27.00;;;;;;5038560;28;20588;-60
2022/03/12 12:42:52;;;;;;;14.77;2.80;;;10.80;27.00;;;;;;5037560;28;20549;-62
2022/03/12 12:45:21;;;;;;;13.38;2.95;;;10.70;27.20;;;;;;5027022;28;20085;-60
2022/03/12 12:47:56;;;;;;;12.65;2.90;;;10.80;27.70;;;;;;5051803;28;20081;-62